sensor_id;sensor_type;location;lat;lon;timestamp;pressure;altitude;pressure_sealevel;temperature;humidity
68859;BME280;55864;49.238;8.092;2023-05-20T00:02:18;99588.13;;;15.95;50.04
68859;BME280;55864;49.238;8.092;2023-05-20T00:04:18;99583.34;;;15.91;50.29
68859;BME280;55864;49.238;8.092;2023-05-20T00:06:19;99582.53;;;15.90;50.70
68859;BME280;55864;49.238;8.092;2023-05-20T00:08:19;99574.75;;;15.89;50.49
68859;BME280;55864;49.238;8.092;2023-05-20T00:10:20;99580.22;;;15.87;50.68
68859;BME280;55864;49.238;8.092;2023-05-20T00:12:22;99575.59;;;15.89;51.55
68859;BME280;55864;49.238;8.092;2023-05-20T00:14:22;99580.88;;;15.89;51.37
68859;BME280;55864;49.238;8.092;2023-05-20T00:16:23;99577.91;;;15.84;50.79
68859;BME280;55864;49.238;8.092;2023-05-20T00:18:23;99575.63;;;15.81;50.75
68859;BME280;55864;49.238;8.092;2023-05-20T00:20:24;99574.13;;;15.79;51.29
68859;BME280;55864;49.238;8.092;2023-05-20T00:22:24;99571.66;;;15.77;51.16
68859;BME280;55864;49.238;8.092;2023-05-20T00:24:26;99573.31;;;15.78;51.24
68859;BME280;55864;49.238;8.092;2023-05-20T00:26:27;99567.69;;;15.81;51.49
68859;BME280;55864;49.238;8.092;2023-05-20T00:28:32;99568.66;;;15.80;51.42
68859;BME280;55864;49.238;8.092;2023-05-20T00:30:33;99566.84;;;15.81;51.57
68859;BME280;55864;49.238;8.092;2023-05-20T00:32:33;99576.47;;;15.82;51.70
68859;BME280;55864;49.238;8.092;2023-05-20T00:34:34;99570.13;;;15.83;51.93
68859;BME280;55864;49.238;8.092;2023-05-20T00:36:35;99571.47;;;15.79;51.82
68859;BME280;55864;49.238;8.092;2023-05-20T00:38:35;99572.81;;;15.75;51.67
68859;BME280;55864;49.238;8.092;2023-05-20T00:40:36;99562.22;;;15.75;51.89
68859;BME280;55864;49.238;8.092;2023-05-20T00:42:36;99569.50;;;15.73;51.86
68859;BME280;55864;49.238;8.092;2023-05-20T00:44:38;99570.28;;;15.89;52.59
68859;BME280;55864;49.238;8.092;2023-05-20T00:46:39;99569.59;;;16.49;51.27
68859;BME280;55864;49.238;8.092;2023-05-20T00:48:42;99563.34;;;17.02;49.14
68859;BME280;55864;49.238;8.092;2023-05-20T00:50:43;99564.81;;;17.04;49.88
68859;BME280;55864;49.238;8.092;2023-05-20T00:52:43;99563.59;;;16.92;49.24
68859;BME280;55864;49.238;8.092;2023-05-20T00:54:44;99570.88;;;16.75;49.50
68859;BME280;55864;49.238;8.092;2023-05-20T00:56:45;99568.00;;;16.62;50.24
68859;BME280;55864;49.238;8.092;2023-05-20T00:58:46;99562.47;;;16.49;50.61
68859;BME280;55864;49.238;8.092;2023-05-20T01:00:49;99565.69;;;16.37;50.76
68859;BME280;55864;49.238;8.092;2023-05-20T01:02:49;99573.06;;;16.27;50.97
68859;BME280;55864;49.238;8.092;2023-05-20T01:04:50;99564.97;;;16.20;51.70
68859;BME280;55864;49.238;8.092;2023-05-20T01:06:51;99565.84;;;16.13;51.56
68859;BME280;55864;49.238;8.092;2023-05-20T01:08:52;99560.59;;;16.05;52.12
68859;BME280;55864;49.238;8.092;2023-05-20T01:10:57;99570.06;;;15.99;52.09
68859;BME280;55864;49.238;8.092;2023-05-20T01:13:03;99566.13;;;15.95;52.20
68859;BME280;55864;49.238;8.092;2023-05-20T01:15:08;99567.47;;;15.91;52.20
68859;BME280;55864;49.238;8.092;2023-05-20T01:17:10;99565.69;;;15.83;52.78
68859;BME280;55864;49.238;8.092;2023-05-20T01:19:21;99569.16;;;15.84;52.83
68859;BME280;55864;49.238;8.092;2023-05-20T01:21:26;99561.25;;;15.76;52.72
68859;BME280;55864;49.238;8.092;2023-05-20T01:23:37;99561.75;;;15.71;53.03
68859;BME280;55864;49.238;8.092;2023-05-20T01:25:37;99567.03;;;15.71;53.40
68859;BME280;55864;49.238;8.092;2023-05-20T01:27:38;99571.03;;;15.67;53.03
68859;BME280;55864;49.238;8.092;2023-05-20T01:29:41;99570.56;;;15.64;53.64
68859;BME280;55864;49.238;8.092;2023-05-20T01:31:42;99564.41;;;15.63;53.67
68859;BME280;55864;49.238;8.092;2023-05-20T01:33:46;99567.25;;;15.62;53.37
68859;BME280;55864;49.238;8.092;2023-05-20T01:35:49;99566.59;;;15.60;53.66
68859;BME280;55864;49.238;8.092;2023-05-20T01:37:54;99564.13;;;15.58;53.49
68859;BME280;55864;49.238;8.092;2023-05-20T01:39:57;99568.44;;;15.59;53.80
68859;BME280;55864;49.238;8.092;2023-05-20T01:41:59;99557.00;;;15.59;53.77
68859;BME280;55864;49.238;8.092;2023-05-20T01:44:00;99565.13;;;15.57;53.88
68859;BME280;55864;49.238;8.092;2023-05-20T01:46:04;99560.81;;;15.56;54.08
68859;BME280;55864;49.238;8.092;2023-05-20T01:48:05;99554.03;;;15.54;53.79
68859;BME280;55864;49.238;8.092;2023-05-20T01:50:06;99559.50;;;15.52;54.31
68859;BME280;55864;49.238;8.092;2023-05-20T01:52:09;99554.38;;;15.51;54.35
68859;BME280;55864;49.238;8.092;2023-05-20T01:54:10;99546.63;;;15.49;54.64
68859;BME280;55864;49.238;8.092;2023-05-20T01:56:12;99558.19;;;15.48;54.43
68859;BME280;55864;49.238;8.092;2023-05-20T01:58:12;99553.91;;;15.47;54.45
68859;BME280;55864;49.238;8.092;2023-05-20T02:00:13;99552.25;;;15.46;54.47
68859;BME280;55864;49.238;8.092;2023-05-20T02:02:14;99554.25;;;15.44;54.58
68859;BME280;55864;49.238;8.092;2023-05-20T02:04:16;99549.78;;;15.45;54.52
68859;BME280;55864;49.238;8.092;2023-05-20T02:06:16;99550.97;;;15.42;54.42
68859;BME280;55864;49.238;8.092;2023-05-20T02:08:17;99549.63;;;15.38;54.64
68859;BME280;55864;49.238;8.092;2023-05-20T02:10:17;99548.13;;;15.36;54.96
68859;BME280;55864;49.238;8.092;2023-05-20T02:12:21;99543.66;;;15.36;55.33
68859;BME280;55864;49.238;8.092;2023-05-20T02:14:21;99543.84;;;15.35;55.11
68859;BME280;55864;49.238;8.092;2023-05-20T02:16:22;99542.34;;;15.32;55.30
68859;BME280;55864;49.238;8.092;2023-05-20T02:18:22;99546.16;;;15.30;55.01
68859;BME280;55864;49.238;8.092;2023-05-20T02:20:23;99544.69;;;15.27;55.47
68859;BME280;55864;49.238;8.092;2023-05-20T02:22:24;99538.75;;;15.25;55.90
68859;BME280;55864;49.238;8.092;2023-05-20T02:24:24;99537.00;;;15.56;55.45
68859;BME280;55864;49.238;8.092;2023-05-20T02:26:25;99532.53;;;16.41;53.18
68859;BME280;55864;49.238;8.092;2023-05-20T02:28:27;99530.59;;;17.09;51.04
68859;BME280;55864;49.238;8.092;2023-05-20T02:30:29;99526.56;;;16.99;50.97
68859;BME280;55864;49.238;8.092;2023-05-20T02:32:30;99525.53;;;16.85;51.44
68859;BME280;55864;49.238;8.092;2023-05-20T02:34:31;99538.47;;;16.65;51.81
68859;BME280;55864;49.238;8.092;2023-05-20T02:36:31;99526.22;;;16.42;52.18
68859;BME280;55864;49.238;8.092;2023-05-20T02:38:32;99525.06;;;16.22;52.88
68859;BME280;55864;49.238;8.092;2023-05-20T02:40:33;99531.09;;;16.08;53.65
68859;BME280;55864;49.238;8.092;2023-05-20T02:42:33;99518.75;;;15.92;53.94
68859;BME280;55864;49.238;8.092;2023-05-20T02:44:36;99514.69;;;15.81;54.27
68859;BME280;55864;49.238;8.092;2023-05-20T02:46:36;99515.75;;;15.72;54.57
68859;BME280;55864;49.238;8.092;2023-05-20T02:48:37;99513.13;;;15.64;55.00
68859;BME280;55864;49.238;8.092;2023-05-20T02:50:38;99505.56;;;15.53;55.03
68859;BME280;55864;49.238;8.092;2023-05-20T02:52:38;99510.53;;;15.48;55.56
68859;BME280;55864;49.238;8.092;2023-05-20T02:54:39;99499.97;;;15.40;55.85
68859;BME280;55864;49.238;8.092;2023-05-20T02:56:40;99500.28;;;15.37;55.74
68859;BME280;55864;49.238;8.092;2023-05-20T02:58:40;99500.31;;;15.29;55.93
68859;BME280;55864;49.238;8.092;2023-05-20T03:00:42;99499.03;;;15.25;56.39
68859;BME280;55864;49.238;8.092;2023-05-20T03:02:43;99499.34;;;15.22;56.68
68859;BME280;55864;49.238;8.092;2023-05-20T03:04:44;99501.34;;;15.20;56.89
68859;BME280;55864;49.238;8.092;2023-05-20T03:06:44;99502.69;;;15.16;57.29
68859;BME280;55864;49.238;8.092;2023-05-20T03:08:45;99504.66;;;15.14;56.82
68859;BME280;55864;49.238;8.092;2023-05-20T03:10:46;99505.03;;;15.11;57.26
68859;BME280;55864;49.238;8.092;2023-05-20T03:12:46;99500.09;;;15.08;57.17
68859;BME280;55864;49.238;8.092;2023-05-20T03:14:47;99500.22;;;15.06;57.57
68859;BME280;55864;49.238;8.092;2023-05-20T03:16:49;99508.88;;;15.00;57.10
68859;BME280;55864;49.238;8.092;2023-05-20T03:18:49;99505.38;;;15.00;57.54
68859;BME280;55864;49.238;8.092;2023-05-20T03:20:50;99513.31;;;15.00;58.07
68859;BME280;55864;49.238;8.092;2023-05-20T03:22:51;99512.50;;;14.99;57.88
68859;BME280;55864;49.238;8.092;2023-05-20T03:24:52;99511.81;;;14.97;57.85
68859;BME280;55864;49.238;8.092;2023-05-20T03:26:52;99512.84;;;14.96;58.06
68859;BME280;55864;49.238;8.092;2023-05-20T03:28:53;99521.94;;;14.94;57.88
68859;BME280;55864;49.238;8.092;2023-05-20T03:30:54;99520.44;;;14.91;58.47
68859;BME280;55864;49.238;8.092;2023-05-20T03:32:57;99520.97;;;14.87;58.01
68859;BME280;55864;49.238;8.092;2023-05-20T03:34:58;99520.59;;;14.82;58.31
68859;BME280;55864;49.238;8.092;2023-05-20T03:36:59;99523.44;;;14.80;58.36
68859;BME280;55864;49.238;8.092;2023-05-20T03:38:59;99526.06;;;14.80;58.72
68859;BME280;55864;49.238;8.092;2023-05-20T03:41:00;99518.97;;;14.81;58.49
68859;BME280;55864;49.238;8.092;2023-05-20T03:43:01;99523.59;;;14.79;58.73
68859;BME280;55864;49.238;8.092;2023-05-20T03:45:01;99521.31;;;14.76;59.15
68859;BME280;55864;49.238;8.092;2023-05-20T03:47:05;99532.03;;;14.74;58.99
68859;BME280;55864;49.238;8.092;2023-05-20T03:49:07;99524.09;;;14.74;58.81
68859;BME280;55864;49.238;8.092;2023-05-20T03:51:08;99526.91;;;14.73;58.89
68859;BME280;55864;49.238;8.092;2023-05-20T03:53:08;99515.66;;;14.71;59.17
68859;BME280;55864;49.238;8.092;2023-05-20T03:55:13;99519.97;;;14.72;59.44
68859;BME280;55864;49.238;8.092;2023-05-20T03:57:14;99515.00;;;14.69;59.41
68859;BME280;55864;49.238;8.092;2023-05-20T03:59:15;99514.34;;;14.67;59.40
68859;BME280;55864;49.238;8.092;2023-05-20T04:01:15;99514.34;;;14.67;59.64
68859;BME280;55864;49.238;8.092;2023-05-20T04:03:16;99510.72;;;14.68;59.83
68859;BME280;55864;49.238;8.092;2023-05-20T04:05:18;99514.03;;;14.70;59.99
68859;BME280;55864;49.238;8.092;2023-05-20T04:07:20;99507.75;;;14.71;59.68
68859;BME280;55864;49.238;8.092;2023-05-20T04:09:20;99513.69;;;14.73;59.78
68859;BME280;55864;49.238;8.092;2023-05-20T04:11:21;99507.56;;;14.72;59.87
68859;BME280;55864;49.238;8.092;2023-05-20T04:13:23;99518.16;;;14.72;59.49
68859;BME280;55864;49.238;8.092;2023-05-20T04:15:24;99514.22;;;14.68;59.59
68859;BME280;55864;49.238;8.092;2023-05-20T04:17:30;99514.22;;;14.68;59.93
68859;BME280;55864;49.238;8.092;2023-05-20T04:19:30;99511.69;;;14.67;60.44
68859;BME280;55864;49.238;8.092;2023-05-20T04:21:32;99515.19;;;14.67;60.25
68859;BME280;55864;49.238;8.092;2023-05-20T04:23:33;99520.47;;;14.67;60.44
68859;BME280;55864;49.238;8.092;2023-05-20T04:25:34;99519.63;;;14.67;60.18
68859;BME280;55864;49.238;8.092;2023-05-20T04:27:35;99521.31;;;14.68;60.48
68859;BME280;55864;49.238;8.092;2023-05-20T04:29:35;99516.03;;;14.68;60.31
68859;BME280;55864;49.238;8.092;2023-05-20T04:31:38;99519.63;;;14.67;60.32
68859;BME280;55864;49.238;8.092;2023-05-20T04:33:39;99519.66;;;14.59;60.76
68859;BME280;55864;49.238;8.092;2023-05-20T04:35:41;99517.03;;;14.59;60.63
68859;BME280;55864;49.238;8.092;2023-05-20T04:37:44;99516.00;;;14.60;60.84
68859;BME280;55864;49.238;8.092;2023-05-20T04:39:45;99515.19;;;14.59;61.13
68859;BME280;55864;49.238;8.092;2023-05-20T04:41:48;99521.31;;;14.76;61.32
68859;BME280;55864;49.238;8.092;2023-05-20T04:43:48;99515.69;;;15.34;59.15
68859;BME280;55864;49.238;8.092;2023-05-20T04:45:49;99518.13;;;15.59;58.60
68859;BME280;55864;49.238;8.092;2023-05-20T04:47:50;99513.56;;;16.07;56.91
68859;BME280;55864;49.238;8.092;2023-05-20T04:49:51;99515.19;;;16.08;56.35
68859;BME280;55864;49.238;8.092;2023-05-20T04:51:51;99510.16;;;15.90;56.86
68859;BME280;55864;49.238;8.092;2023-05-20T04:53:54;99511.09;;;15.74;57.81
68859;BME280;55864;49.238;8.092;2023-05-20T04:55:54;99515.94;;;15.63;57.93
68859;BME280;55864;49.238;8.092;2023-05-20T04:57:55;99518.16;;;15.51;58.91
68859;BME280;55864;49.238;8.092;2023-05-20T04:59:56;99512.22;;;15.33;58.77
68859;BME280;55864;49.238;8.092;2023-05-20T05:01:56;99511.13;;;15.20;58.97
68859;BME280;55864;49.238;8.092;2023-05-20T05:03:57;99515.59;;;15.11;59.48
68859;BME280;55864;49.238;8.092;2023-05-20T05:05:58;99514.28;;;15.07;60.22
68859;BME280;55864;49.238;8.092;2023-05-20T05:08:00;99511.34;;;15.02;60.18
68859;BME280;55864;49.238;8.092;2023-05-20T05:10:02;99504.72;;;14.98;60.19
68859;BME280;55864;49.238;8.092;2023-05-20T05:12:04;99505.41;;;14.92;60.37
68859;BME280;55864;49.238;8.092;2023-05-20T05:14:05;99502.09;;;14.90;61.06
68859;BME280;55864;49.238;8.092;2023-05-20T05:16:06;99495.84;;;14.83;60.65
68859;BME280;55864;49.238;8.092;2023-05-20T05:18:07;99490.22;;;14.78;61.31
68859;BME280;55864;49.238;8.092;2023-05-20T05:20:09;99487.91;;;14.75;61.22
68859;BME280;55864;49.238;8.092;2023-05-20T05:22:10;99486.28;;;14.74;61.84
68859;BME280;55864;49.238;8.092;2023-05-20T05:24:11;99491.88;;;14.71;61.55
68859;BME280;55864;49.238;8.092;2023-05-20T05:26:13;99484.94;;;14.70;61.62
68859;BME280;55864;49.238;8.092;2023-05-20T05:28:14;99484.13;;;14.69;62.09
68859;BME280;55864;49.238;8.092;2023-05-20T05:30:14;99479.97;;;14.67;61.93
68859;BME280;55864;49.238;8.092;2023-05-20T05:32:15;99473.72;;;14.68;62.12
68859;BME280;55864;49.238;8.092;2023-05-20T05:34:16;99479.97;;;14.67;61.85
68859;BME280;55864;49.238;8.092;2023-05-20T05:36:17;99476.34;;;14.68;62.60
68859;BME280;55864;49.238;8.092;2023-05-20T05:38:18;99472.03;;;14.67;63.00
68859;BME280;55864;49.238;8.092;2023-05-20T05:40:19;99470.72;;;14.71;62.50
68859;BME280;55864;49.238;8.092;2023-05-20T05:42:22;99477.69;;;14.72;62.61
68859;BME280;55864;49.238;8.092;2023-05-20T05:44:23;99466.94;;;14.73;62.88
68859;BME280;55864;49.238;8.092;2023-05-20T05:46:25;99473.03;;;14.74;62.77
68859;BME280;55864;49.238;8.092;2023-05-20T05:48:25;99477.69;;;14.72;62.74
68859;BME280;55864;49.238;8.092;2023-05-20T05:50:26;99471.19;;;14.74;63.04
68859;BME280;55864;49.238;8.092;2023-05-20T05:52:27;99470.72;;;14.79;62.76
68859;BME280;55864;49.238;8.092;2023-05-20T05:54:28;99473.53;;;14.77;63.03
68859;BME280;55864;49.238;8.092;2023-05-20T05:56:28;99469.72;;;14.80;63.01
68859;BME280;55864;49.238;8.092;2023-05-20T05:58:32;99469.56;;;14.81;63.53
68859;BME280;55864;49.238;8.092;2023-05-20T06:00:33;99469.38;;;14.83;63.57
68859;BME280;55864;49.238;8.092;2023-05-20T06:02:34;99471.84;;;14.84;63.57
68859;BME280;55864;49.238;8.092;2023-05-20T06:04:35;99473.84;;;14.82;63.35
68859;BME280;55864;49.238;8.092;2023-05-20T06:06:35;99475.50;;;14.83;63.58
68859;BME280;55864;49.238;8.092;2023-05-20T06:08:36;99465.91;;;14.82;63.18
68859;BME280;55864;49.238;8.092;2023-05-20T06:10:37;99463.09;;;14.84;63.39
68859;BME280;55864;49.238;8.092;2023-05-20T06:12:38;99462.09;;;14.85;63.17
68859;BME280;55864;49.238;8.092;2023-05-20T06:14:41;99468.88;;;14.87;63.73
68859;BME280;55864;49.238;8.092;2023-05-20T06:16:42;99469.38;;;14.91;63.66
68859;BME280;55864;49.238;8.092;2023-05-20T06:18:44;99466.03;;;14.97;63.76
68859;BME280;55864;49.238;8.092;2023-05-20T06:20:44;99471.00;;;15.00;63.52
68859;BME280;55864;49.238;8.092;2023-05-20T06:22:45;99467.34;;;15.01;63.76
68859;BME280;55864;49.238;8.092;2023-05-20T06:24:46;99464.56;;;15.02;63.77
68859;BME280;55864;49.238;8.092;2023-05-20T06:26:47;99470.31;;;15.06;63.53
68859;BME280;55864;49.238;8.092;2023-05-20T06:28:48;99461.38;;;15.07;63.00
68859;BME280;55864;49.238;8.092;2023-05-20T06:30:54;99471.31;;;15.05;63.29
68859;BME280;55864;49.238;8.092;2023-05-20T06:32:59;99470.31;;;15.06;63.44
68859;BME280;55864;49.238;8.092;2023-05-20T06:35:02;99474.09;;;15.20;62.84
68859;BME280;55864;49.238;8.092;2023-05-20T06:37:04;99470.94;;;15.63;62.33
68859;BME280;55864;49.238;8.092;2023-05-20T06:39:08;99465.19;;;16.05;60.72
68859;BME280;55864;49.238;8.092;2023-05-20T06:41:09;99465.63;;;16.16;60.39
68859;BME280;55864;49.238;8.092;2023-05-20T06:43:09;99459.72;;;16.06;60.45
68859;BME280;55864;49.238;8.092;2023-05-20T06:45:36;99455.81;;;15.94;60.73
68859;BME280;55864;49.238;8.092;2023-05-20T06:47:55;99447.13;;;15.85;61.16
68859;BME280;55864;49.238;8.092;2023-05-20T06:49:56;99456.75;;;15.78;61.55
68859;BME280;55864;49.238;8.092;2023-05-20T06:51:57;99454.97;;;15.71;61.64
68859;BME280;55864;49.238;8.092;2023-05-20T06:53:58;99457.34;;;15.66;61.71
68859;BME280;55864;49.238;8.092;2023-05-20T06:55:59;99453.56;;;15.60;61.87
68859;BME280;55864;49.238;8.092;2023-05-20T06:58:00;99461.03;;;15.57;62.18
68859;BME280;55864;49.238;8.092;2023-05-20T07:00:01;99454.25;;;15.54;62.22
68859;BME280;55864;49.238;8.092;2023-05-20T07:02:03;99449.13;;;15.53;62.24
68859;BME280;55864;49.238;8.092;2023-05-20T07:04:05;99454.59;;;15.51;62.58
68859;BME280;55864;49.238;8.092;2023-05-20T07:06:06;99463.91;;;15.47;62.58
68859;BME280;55864;49.238;8.092;2023-05-20T07:08:07;99456.31;;;15.44;62.57
68859;BME280;55864;49.238;8.092;2023-05-20T07:10:08;99461.75;;;15.43;62.59
68859;BME280;55864;49.238;8.092;2023-05-20T07:12:10;99456.31;;;15.44;63.00
68859;BME280;55864;49.238;8.092;2023-05-20T07:14:10;99450.00;;;15.45;63.24
68859;BME280;55864;49.238;8.092;2023-05-20T07:16:11;99456.13;;;15.46;63.55
68859;BME280;55864;49.238;8.092;2023-05-20T07:18:15;99455.28;;;15.45;63.93
68859;BME280;55864;49.238;8.092;2023-05-20T07:20:18;99443.06;;;15.44;62.92
68859;BME280;55864;49.238;8.092;2023-05-20T07:22:19;99449.34;;;15.43;63.17
68859;BME280;55864;49.238;8.092;2023-05-20T07:24:26;99449.34;;;15.43;63.31
68859;BME280;55864;49.238;8.092;2023-05-20T07:26:27;99449.69;;;15.40;63.23
68859;BME280;55864;49.238;8.092;2023-05-20T07:28:27;99455.94;;;15.39;63.62
68859;BME280;55864;49.238;8.092;2023-05-20T07:30:28;99452.47;;;15.39;63.49
68859;BME280;55864;49.238;8.092;2023-05-20T07:32:51;99449.69;;;15.40;63.86
68859;BME280;55864;49.238;8.092;2023-05-20T07:34:52;99449.69;;;15.40;63.77
68859;BME280;55864;49.238;8.092;2023-05-20T07:36:54;99447.03;;;15.40;63.55
68859;BME280;55864;49.238;8.092;2023-05-20T07:38:55;99439.78;;;15.42;63.69
68859;BME280;55864;49.238;8.092;2023-05-20T07:40:56;99444.22;;;15.42;63.65
68859;BME280;55864;49.238;8.092;2023-05-20T07:42:57;99438.75;;;15.43;63.82
68859;BME280;55864;49.238;8.092;2023-05-20T07:44:59;99433.28;;;15.45;63.88
68859;BME280;55864;49.238;8.092;2023-05-20T07:47:00;99432.97;;;15.48;64.06
68859;BME280;55864;49.238;8.092;2023-05-20T07:49:00;99432.59;;;15.51;64.07
68859;BME280;55864;49.238;8.092;2023-05-20T07:51:01;99436.38;;;15.56;64.06
68859;BME280;55864;49.238;8.092;2023-05-20T07:53:03;99427.06;;;15.60;63.75
68859;BME280;55864;49.238;8.092;2023-05-20T07:55:07;99436.31;;;15.64;63.73
68859;BME280;55864;49.238;8.092;2023-05-20T07:57:08;99434.34;;;15.66;63.76
68859;BME280;55864;49.238;8.092;2023-05-20T07:59:08;99424.69;;;15.73;63.87
68859;BME280;55864;49.238;8.092;2023-05-20T08:01:18;99421.28;;;16.10;63.32
68859;BME280;55864;49.238;8.092;2023-05-20T08:03:18;99425.72;;;16.47;62.34
68859;BME280;55864;49.238;8.092;2023-05-20T08:05:37;99414.28;;;16.69;60.92
68859;BME280;55864;49.238;8.092;2023-05-20T08:07:45;99409.97;;;16.68;61.01
68859;BME280;55864;49.238;8.092;2023-05-20T08:09:49;99408.69;;;16.64;61.12
68859;BME280;55864;49.238;8.092;2023-05-20T08:11:50;99409.88;;;16.61;61.67
68859;BME280;55864;49.238;8.092;2023-05-20T08:13:51;99419.03;;;16.59;61.11
68859;BME280;55864;49.238;8.092;2023-05-20T08:15:52;99417.53;;;16.56;61.40
68859;BME280;55864;49.238;8.092;2023-05-20T08:17:52;99404.47;;;16.55;61.06
68859;BME280;55864;49.238;8.092;2023-05-20T08:19:53;99405.31;;;16.55;61.53
68859;BME280;55864;49.238;8.092;2023-05-20T08:21:54;99417.72;;;16.55;61.97
68859;BME280;55864;49.238;8.092;2023-05-20T08:23:55;99415.34;;;16.60;61.63
68859;BME280;55864;49.238;8.092;2023-05-20T08:25:57;99409.69;;;16.63;61.80
68859;BME280;55864;49.238;8.092;2023-05-20T08:28:00;99411.00;;;16.67;61.51
68859;BME280;55864;49.238;8.092;2023-05-20T08:30:01;99413.06;;;16.71;61.23
68859;BME280;55864;49.238;8.092;2023-05-20T08:32:02;99414.56;;;16.74;61.25
68859;BME280;55864;49.238;8.092;2023-05-20T08:34:02;99415.66;;;16.79;61.93
68859;BME280;55864;49.238;8.092;2023-05-20T08:36:03;99408.78;;;16.85;62.01
68859;BME280;55864;49.238;8.092;2023-05-20T08:38:04;99415.56;;;16.87;61.51
68859;BME280;55864;49.238;8.092;2023-05-20T08:40:05;99412.53;;;16.90;61.33
68859;BME280;55864;49.238;8.092;2023-05-20T08:42:07;99408.31;;;16.96;61.63
68859;BME280;55864;49.238;8.092;2023-05-20T08:44:08;99420.03;;;17.02;61.86
68859;BME280;55864;49.238;8.092;2023-05-20T08:46:10;99408.50;;;17.09;61.63
68859;BME280;55864;49.238;8.092;2023-05-20T08:48:12;99402.63;;;17.14;60.90
68859;BME280;55864;49.238;8.092;2023-05-20T08:50:13;99399.44;;;17.18;60.82
68859;BME280;55864;49.238;8.092;2023-05-20T08:52:15;99394.81;;;17.27;60.60
68859;BME280;55864;49.238;8.092;2023-05-20T08:54:16;99394.09;;;17.33;60.48
68859;BME280;55864;49.238;8.092;2023-05-20T08:56:18;99396.19;;;17.37;60.31
68859;BME280;55864;49.238;8.092;2023-05-20T08:58:20;99401.31;;;17.39;60.12
68859;BME280;55864;49.238;8.092;2023-05-20T09:00:22;99387.47;;;17.43;59.94
68859;BME280;55864;49.238;8.092;2023-05-20T09:02:23;99381.88;;;17.53;60.06
68859;BME280;55864;49.238;8.092;2023-05-20T09:04:24;99377.91;;;17.63;60.05
68859;BME280;55864;49.238;8.092;2023-05-20T09:06:24;99384.00;;;18.00;58.64
68859;BME280;55864;49.238;8.092;2023-05-20T09:08:25;99384.22;;;18.05;58.27
68859;BME280;55864;49.238;8.092;2023-05-20T09:10:25;99389.97;;;18.08;58.55
68859;BME280;55864;49.238;8.092;2023-05-20T09:12:26;99386.13;;;18.11;58.13
68859;BME280;55864;49.238;8.092;2023-05-20T09:14:28;99377.13;;;18.12;58.24
68859;BME280;55864;49.238;8.092;2023-05-20T09:16:28;99369.78;;;18.14;58.32
68859;BME280;55864;49.238;8.092;2023-05-20T09:18:29;99373.69;;;18.18;57.92
68859;BME280;55864;49.238;8.092;2023-05-20T09:20:32;99378.44;;;18.22;58.23
68859;BME280;55864;49.238;8.092;2023-05-20T09:22:33;99370.50;;;18.29;57.91
68859;BME280;55864;49.238;8.092;2023-05-20T09:24:33;99375.06;;;18.35;58.34
68859;BME280;55864;49.238;8.092;2023-05-20T09:26:34;99369.97;;;18.40;57.90
68859;BME280;55864;49.238;8.092;2023-05-20T09:28:34;99380.28;;;18.43;58.42
68859;BME280;55864;49.238;8.092;2023-05-20T09:30:36;99372.31;;;18.49;58.04
68859;BME280;55864;49.238;8.092;2023-05-20T09:32:37;99372.94;;;18.51;57.75
68859;BME280;55864;49.238;8.092;2023-05-20T09:34:37;99368.06;;;18.55;57.62
68859;BME280;55864;49.238;8.092;2023-05-20T09:36:39;99374.84;;;18.57;57.34
68859;BME280;55864;49.238;8.092;2023-05-20T09:38:39;99371.97;;;18.59;57.13
68859;BME280;55864;49.238;8.092;2023-05-20T09:40:41;99370.34;;;18.58;56.96
68859;BME280;55864;49.238;8.092;2023-05-20T09:42:47;99369.94;;;18.61;56.80
68859;BME280;55864;49.238;8.092;2023-05-20T09:44:50;99367.91;;;18.63;56.63
68859;BME280;55864;49.238;8.092;2023-05-20T09:46:52;99367.34;;;18.67;57.00
68859;BME280;55864;49.238;8.092;2023-05-20T09:48:54;99383.53;;;18.72;57.18
68859;BME280;55864;49.238;8.092;2023-05-20T09:50:56;99372.94;;;18.86;56.99
68859;BME280;55864;49.238;8.092;2023-05-20T09:53:01;99373.25;;;19.04;56.40
68859;BME280;55864;49.238;8.092;2023-05-20T09:55:03;99372.66;;;19.08;56.42
68859;BME280;55864;49.238;8.092;2023-05-20T09:57:06;99365.91;;;19.12;56.82
68859;BME280;55864;49.238;8.092;2023-05-20T09:59:06;99366.72;;;19.13;55.99
68859;BME280;55864;49.238;8.092;2023-05-20T10:01:08;99361.19;;;19.14;55.99
68859;BME280;55864;49.238;8.092;2023-05-20T10:03:10;99356.72;;;19.15;56.51
68859;BME280;55864;49.238;8.092;2023-05-20T10:05:15;99352.84;;;19.24;56.40
68859;BME280;55864;49.238;8.092;2023-05-20T10:07:36;99354.13;;;19.34;55.30
68859;BME280;55864;49.238;8.092;2023-05-20T10:09:53;99354.50;;;19.31;55.53
68859;BME280;55864;49.238;8.092;2023-05-20T10:12:02;99341.84;;;19.40;55.67
68859;BME280;55864;49.238;8.092;2023-05-20T10:14:19;99350.06;;;19.45;55.20
68859;BME280;55864;49.238;8.092;2023-05-20T10:16:35;99345.56;;;19.45;55.13
68859;BME280;55864;49.238;8.092;2023-05-20T10:18:48;99333.03;;;19.46;54.90
68859;BME280;55864;49.238;8.092;2023-05-20T10:20:53;99338.78;;;19.49;55.19
68859;BME280;55864;49.238;8.092;2023-05-20T10:22:54;99344.97;;;19.56;55.15
68859;BME280;55864;49.238;8.092;2023-05-20T10:24:57;99337.59;;;19.58;55.39
68859;BME280;55864;49.238;8.092;2023-05-20T10:27:00;99335.75;;;19.65;55.57
68859;BME280;55864;49.238;8.092;2023-05-20T10:29:01;99340.66;;;19.68;55.75
68859;BME280;55864;49.238;8.092;2023-05-20T10:31:02;99337.81;;;19.77;54.66
68859;BME280;55864;49.238;8.092;2023-05-20T10:33:04;99336.19;;;20.02;54.04
68859;BME280;55864;49.238;8.092;2023-05-20T10:35:08;99330.84;;;20.15;54.31
68859;BME280;55864;49.238;8.092;2023-05-20T10:37:08;99334.34;;;20.22;54.23
68859;BME280;55864;49.238;8.092;2023-05-20T10:39:14;99333.13;;;20.24;53.63
68859;BME280;55864;49.238;8.092;2023-05-20T10:41:19;99323.47;;;20.30;53.24
68859;BME280;55864;49.238;8.092;2023-05-20T10:43:26;99325.53;;;20.28;53.15
68859;BME280;55864;49.238;8.092;2023-05-20T10:45:27;99310.97;;;20.30;52.82
68859;BME280;55864;49.238;8.092;2023-05-20T10:47:28;99320.38;;;20.33;52.59